ADDS METAR Data INFO
IDs: Format: Raw Decoded Include TAF

Data at: 0749 UTC 17 Oct 2017

KVBT 170656Z AUTO 00000KT 10SM CLR 07/05 A3031 RMK AO2 SLP267 T00720050
KVBT 170556Z AUTO 14004KT 10SM CLR 08/05 A3032 RMK AO2 SLP269 T00780050 10156 20067 401940044 58000
KVBT 170456Z AUTO 00000KT 10SM CLR 08/05 A3032 RMK AO2 SLP270 T00830050
KVBT 170356Z AUTO 20003KT 9SM CLR 09/05 A3033 RMK AO2 SLP275 T00890050
KVBT 170256Z AUTO 00000KT 10SM CLR 09/06 A3032 RMK AO2 SLP270 T00940056 50003
KVBT 170156Z AUTO 00000KT 10SM CLR 12/04 A3033 RMK AO2 SLP272 T01170044
KVBT 170056Z AUTO 00000KT 10SM CLR 13/04 A3032 RMK AO2 SLP274 T01330039
KVBT 162356Z AUTO 13003KT 10SM CLR 16/03 A3031 RMK AO2 SLP268 T01560033 10194 20156 56009
KVBT 162256Z AUTO 15003KT 10SM CLR 18/03 A3032 RMK AO2 SLP270 T01780033
KVBT 162156Z AUTO VRB03KT 10SM CLR 19/02 A3033 RMK AO2 SLP272 T01890022
KVBT 162056Z AUTO VRB06KT 10SM CLR 19/02 A3034 RMK AO2 SLP276 T01940022 56028 TSNO
KVBT 161956Z AUTO VRB05KT 10SM CLR 19/02 A3036 RMK AO2 SLP284 T01890022
KVBT 161856Z AUTO 10005KT 10SM CLR 18/03 A3039 RMK AO2 SLP295 T01830028
KVBT 161756Z AUTO 10007KT 10SM CLR 17/03 A3043 RMK AO2 SLP305 T01720028 10172 20044 58009
KVBT 161656Z AUTO 09010KT 10SM CLR 16/02 A3045 RMK AO2 SLP313 T01610017
KVBT 161556Z AUTO 08008KT 10SM CLR 14/03 A3046 RMK AO2 SLP318 T01440033
KVBT 161456Z AUTO 06006KT 10SM CLR 12/04 A3045 RMK AO2 SLP316 T01220044 51009
KVBT 161356Z AUTO 00000KT 10SM CLR 10/05 A3045 RMK AO2 SLP315 T01000050
KVBT 161256Z AUTO 00000KT 10SM CLR 06/04 A3044 RMK AO2 SLP312 T00560044
KVBT 161056Z AUTO 00000KT 10SM CLR 04/04 A3042 RMK AO2 SLP305 T00440039
KVBT 160956Z AUTO 00000KT 10SM CLR 05/04 A3041 RMK AO2 SLP302 T00500044
KVBT 160856Z AUTO 00000KT 10SM CLR 06/04 A3041 RMK AO2 SLP301 T00610044 51003
KVBT 160656Z AUTO 00000KT 10SM CLR 07/05 A3040 RMK AO2 SLP297 T00670050
KVBT 160556Z AUTO 00000KT 10SM CLR 07/06 A3040 RMK AO2 SLP297 T00720056 10139 20072 402440072 50004
KVBT 160456Z AUTO 00000KT 10SM CLR 08/06 A3040 RMK AO2 SLP299 T00830056
KVBT 160356Z AUTO 36004KT 10SM CLR 09/06 A3040 RMK AO2 SLP298 T00890056
KVBT 160256Z AUTO 35003KT 10SM CLR 09/05 A3039 RMK AO2 SLP294 T00940050 51017
KVBT 160156Z AUTO 33004KT 10SM CLR 11/05 A3037 RMK AO2 SLP288 T01110050
KVBT 160056Z AUTO 34005KT 10SM CLR 12/05 A3036 RMK AO2 SLP282 T01220050
KVBT 152356Z AUTO 33006KT 10SM CLR 14/05 A3033 RMK AO2 SLP274 T01390050 10178 20139 53007
KVBT 152256Z AUTO 35008KT 10SM CLR 16/05 A3032 RMK AO2 SLP268 T01610050
KVBT 152156Z AUTO 32008KT 10SM CLR 17/05 A3032 RMK AO2 SLP265 T01670050
KVBT 152056Z AUTO 34009KT 10SM CLR 17/05 A3031 RMK AO2 SLP263 T01720050 56005
KVBT 151956Z AUTO 34010G16KT 10SM CLR 17/05 A3031 RMK AO2 SLP263 T01720050